createdAt,value
2019-04-27T00:01:48.390Z,23.07
2019-04-27T00:04:39.724Z,20.53
2019-04-27T00:07:26.777Z,25.33
2019-04-27T00:10:00.595Z,22.57
2019-04-27T00:12:30.264Z,21.67
2019-04-27T00:14:59.880Z,28.93
2019-04-27T00:17:58.571Z,25.90
2019-04-27T00:20:39.405Z,23.50
2019-04-27T00:23:11.608Z,25.30
2019-04-27T00:25:41.214Z,25.80
2019-04-27T00:28:10.824Z,23.60
2019-04-27T00:30:40.419Z,23.67
2019-04-27T00:33:10.031Z,25.10
2019-04-27T00:35:48.881Z,23.63
2019-04-27T00:38:47.432Z,25.03
2019-04-27T00:41:19.175Z,22.83
2019-04-27T00:43:48.636Z,22.97
2019-04-27T00:46:18.365Z,24.30
2019-04-27T00:48:47.961Z,22.60
2019-04-27T00:51:17.577Z,20.33
2019-04-27T00:53:47.178Z,24.43
2019-04-27T00:56:34.355Z,24.53
2019-04-27T00:59:21.207Z,23.77
2019-04-27T01:02:08.388Z,23.23
2019-04-27T01:04:38.222Z,27.13
2019-04-27T01:07:08.331Z,23.97
2019-04-27T01:09:37.950Z,22.30
2019-04-27T01:12:08.661Z,23.40
2019-04-27T01:14:38.274Z,21.57
2019-04-27T01:17:08.850Z,22.40
2019-04-27T01:19:39.225Z,24.00
2019-04-27T01:22:09.168Z,25.50
2019-04-27T01:24:39.151Z,22.20
2019-04-27T01:27:23.806Z,22.90
2019-04-27T01:29:54.041Z,23.40
2019-04-27T01:32:23.676Z,23.13
2019-04-27T01:34:53.311Z,25.80
2019-04-27T01:37:22.937Z,25.80
2019-04-27T01:39:52.546Z,23.23
2019-04-27T01:42:22.155Z,25.37
2019-04-27T01:44:51.763Z,24.40
2019-04-27T01:47:21.377Z,18.90
2019-04-27T01:49:51.107Z,22.77
2019-04-27T01:52:20.723Z,24.30
2019-04-27T01:54:50.348Z,23.97
2019-04-27T01:57:20.171Z,23.27
2019-04-27T01:59:49.807Z,26.00
2019-04-27T02:02:33.323Z,22.53
2019-04-27T02:05:21.899Z,23.93
2019-04-27T02:07:51.479Z,25.50
2019-04-27T02:10:21.104Z,24.83
2019-04-27T02:12:50.736Z,20.20
2019-04-27T02:15:20.516Z,22.50
2019-04-27T02:17:51.014Z,24.73
2019-04-27T02:20:20.854Z,27.53
2019-04-27T02:22:50.762Z,21.47
2019-04-27T02:25:21.099Z,22.97
2019-04-27T02:27:55.320Z,24.33
2019-04-27T02:30:57.778Z,22.53
2019-04-27T02:33:35.050Z,22.00
2019-04-27T02:36:05.157Z,24.10
2019-04-27T02:38:34.778Z,21.97
2019-04-27T02:41:04.902Z,20.90
2019-04-27T02:43:41.011Z,26.30
2019-04-27T02:46:10.603Z,25.30
2019-04-27T02:48:55.982Z,24.73
2019-04-27T02:51:13.432Z,21.97
2019-04-27T02:54:00.137Z,22.60
2019-04-27T02:56:30.776Z,24.57
2019-04-27T02:59:00.474Z,22.73
2019-04-27T03:01:32.464Z,25.90
2019-04-27T03:04:02.099Z,23.10
2019-04-27T03:06:31.698Z,24.57
2019-04-27T03:09:01.307Z,23.87
2019-04-27T03:11:32.013Z,22.57
2019-04-27T03:14:36.416Z,23.93
2019-04-27T03:17:22.743Z,24.60
2019-04-27T03:19:59.777Z,21.87
2019-04-27T03:22:49.421Z,26.50
2019-04-27T03:25:39.886Z,22.00
2019-04-27T03:28:13.268Z,22.63
2019-04-27T03:30:43.606Z,26.87
2019-04-27T03:33:13.358Z,23.57
2019-04-27T03:35:43.988Z,20.83
2019-04-27T03:38:13.893Z,23.20
2019-04-27T03:40:43.598Z,22.70
2019-04-27T03:43:21.809Z,24.10
2019-04-27T03:45:52.285Z,25.03
2019-04-27T03:48:22.412Z,22.50
2019-04-27T03:51:20.112Z,26.63
2019-04-27T03:54:15.463Z,23.97
2019-04-27T03:56:51.516Z,20.80
2019-04-27T03:59:24.466Z,24.77
2019-04-27T04:01:54.048Z,20.77
2019-04-27T04:04:23.663Z,23.57
2019-04-27T04:06:53.364Z,25.60
2019-04-27T04:09:40.181Z,18.90
2019-04-27T04:12:16.847Z,21.93
2019-04-27T04:14:46.458Z,21.80
2019-04-27T04:17:16.881Z,20.73
2019-04-27T04:19:54.433Z,21.33
2019-04-27T04:22:19.843Z,23.53
2019-04-27T04:24:50.647Z,21.90
2019-04-27T04:27:20.287Z,20.07
2019-04-27T04:29:49.884Z,24.43
2019-04-27T04:32:19.496Z,21.80
2019-04-27T04:34:50.280Z,26.97
2019-04-27T04:37:20.020Z,20.87
2019-04-27T04:39:53.170Z,22.60
2019-04-27T04:42:31.672Z,24.50
2019-04-27T04:45:26.179Z,19.50
2019-04-27T04:47:59.673Z,20.80
2019-04-27T04:50:30.401Z,21.67
2019-04-27T04:53:00.155Z,24.03
2019-04-27T04:55:30.610Z,20.97
2019-04-27T04:58:00.408Z,24.13
2019-04-27T05:00:30.118Z,25.10
2019-04-27T05:02:59.740Z,19.90
2019-04-27T05:05:29.456Z,24.73
2019-04-27T05:08:00.751Z,22.20
2019-04-27T05:10:31.275Z,20.73
2019-04-27T05:13:01.063Z,23.07
2019-04-27T05:15:30.675Z,20.27
2019-04-27T05:18:00.291Z,20.70
2019-04-27T05:20:44.452Z,20.87
2019-04-27T05:23:14.072Z,23.03
2019-04-27T05:25:43.696Z,20.27
2019-04-27T05:28:13.302Z,24.77
2019-04-27T05:30:42.932Z,23.83
2019-04-27T05:33:12.529Z,19.00
2019-04-27T05:35:42.149Z,23.53
2019-04-27T05:38:13.495Z,21.10
2019-04-27T05:40:43.027Z,23.77
2019-04-27T05:43:14.215Z,19.83
2019-04-27T05:46:29.267Z,22.37
2019-04-27T05:48:59.939Z,21.50
2019-04-27T05:51:36.604Z,20.17
2019-04-27T05:53:59.626Z,19.43
2019-04-27T05:56:32.109Z,19.13
2019-04-27T05:59:01.694Z,17.70
2019-04-27T06:01:32.699Z,23.17
2019-04-27T06:04:04.796Z,19.83
2019-04-27T06:06:34.488Z,21.03
2019-04-27T06:09:09.506Z,19.97
2019-04-27T06:11:40.024Z,19.27
2019-04-27T06:14:09.924Z,19.10
2019-04-27T06:16:42.380Z,20.83
2019-04-27T06:19:11.978Z,18.77
2019-04-27T06:21:41.666Z,20.43
2019-04-27T06:24:11.291Z,20.40
2019-04-27T06:26:40.893Z,18.03
2019-04-27T06:29:10.489Z,23.17
2019-04-27T06:31:40.109Z,19.43
2019-04-27T06:34:09.953Z,22.60
2019-04-27T06:36:39.547Z,19.47
2019-04-27T06:39:10.659Z,20.27
2019-04-27T06:41:40.300Z,18.00
2019-04-27T06:44:11.393Z,17.60
2019-04-27T06:46:41.259Z,20.97
2019-04-27T06:49:11.166Z,16.30
2019-04-27T06:51:40.967Z,19.53
2019-04-27T06:54:10.576Z,17.13
2019-04-27T06:56:40.402Z,18.83
2019-04-27T06:59:10.023Z,20.10
2019-04-27T07:01:39.654Z,20.33
2019-04-27T07:04:12.051Z,20.33
2019-04-27T07:06:53.331Z,17.67
2019-04-27T07:09:16.075Z,15.83
2019-04-27T07:11:45.701Z,17.63
2019-04-27T07:14:16.612Z,17.63
2019-04-27T07:16:46.281Z,16.20
2019-04-27T07:19:15.870Z,19.57
2019-04-27T07:21:45.488Z,18.77
2019-04-27T07:24:15.105Z,18.57
2019-04-27T07:26:44.714Z,16.27
2019-04-27T07:29:14.328Z,20.10
2019-04-27T07:31:46.938Z,26.50
2019-04-27T07:34:16.558Z,17.27
2019-04-27T07:36:46.199Z,15.70
2019-04-27T07:39:15.888Z,20.20
2019-04-27T07:41:45.632Z,20.13
2019-04-27T07:44:35.719Z,18.90
2019-04-27T07:47:25.258Z,18.20
2019-04-27T07:49:54.895Z,14.90
2019-04-27T07:52:28.603Z,16.03
2019-04-27T07:54:58.762Z,20.63
2019-04-27T07:57:28.939Z,19.23
2019-04-27T07:59:59.644Z,19.23
2019-04-27T08:02:29.481Z,18.63
2019-04-27T08:04:59.565Z,19.97
2019-04-27T08:07:29.349Z,20.63
2019-04-27T08:10:01.142Z,18.27
2019-04-27T08:12:30.275Z,18.77
2019-04-27T08:15:00.125Z,25.80
2019-04-27T08:17:30.274Z,18.53
2019-04-27T08:19:59.970Z,20.33
2019-04-27T08:22:29.615Z,18.33
2019-04-27T08:24:59.571Z,24.53
2019-04-27T08:27:51.166Z,17.23
2019-04-27T08:30:36.986Z,21.80
2019-04-27T08:33:09.155Z,17.80
2019-04-27T08:35:38.878Z,20.17
2019-04-27T08:38:10.283Z,17.90
2019-04-27T08:40:40.024Z,17.47
2019-04-27T08:43:09.648Z,16.20
2019-04-27T08:45:39.356Z,19.40
2019-04-27T08:48:09.444Z,21.33
2019-04-27T08:50:41.665Z,16.40
2019-04-27T08:53:10.321Z,16.57
2019-04-27T08:55:40.160Z,19.73
2019-04-27T08:58:10.213Z,16.83
2019-04-27T09:00:39.984Z,17.23
2019-04-27T09:03:09.704Z,18.40
2019-04-27T09:05:43.730Z,13.87
2019-04-27T09:08:34.937Z,14.40
2019-04-27T09:11:29.744Z,21.13
2019-04-27T09:14:09.075Z,15.47
2019-04-27T09:17:02.839Z,18.53
2019-04-27T09:19:50.552Z,16.70
2019-04-27T09:22:20.780Z,17.07
2019-04-27T09:24:50.508Z,17.77
2019-04-27T09:27:20.135Z,15.87
2019-04-27T09:29:50.104Z,16.37
2019-04-27T09:32:19.817Z,18.37
2019-04-27T09:34:49.438Z,14.83
2019-04-27T09:37:19.086Z,19.37
2019-04-27T09:39:48.755Z,14.17
2019-04-27T09:42:18.361Z,18.83
2019-04-27T09:44:47.971Z,24.87
2019-04-27T09:47:17.695Z,15.23
2019-04-27T09:49:47.311Z,20.27
2019-04-27T09:52:24.343Z,16.57
2019-04-27T09:54:48.323Z,19.20
2019-04-27T09:57:17.920Z,20.90
2019-04-27T09:59:48.955Z,17.07
2019-04-27T10:02:18.591Z,13.90
2019-04-27T10:04:48.310Z,19.13
2019-04-27T10:07:17.929Z,18.70
2019-04-27T10:09:47.664Z,18.70
2019-04-27T10:12:17.284Z,16.60
2019-04-27T10:14:47.682Z,19.57
2019-04-27T10:17:17.399Z,15.73
2019-04-27T10:19:47.040Z,16.27
2019-04-27T10:22:16.678Z,24.93
2019-04-27T10:24:46.290Z,15.53
2019-04-27T10:27:16.231Z,17.70
2019-04-27T10:29:46.809Z,20.87
2019-04-27T10:32:16.459Z,16.87
2019-04-27T10:34:46.096Z,20.37
2019-04-27T10:37:16.143Z,20.67
2019-04-27T10:39:46.066Z,18.73
2019-04-27T10:42:15.772Z,18.83
2019-04-27T10:44:46.153Z,18.03
2019-04-27T10:47:16.315Z,15.30
2019-04-27T10:49:46.546Z,19.70
2019-04-27T10:52:17.179Z,18.97
2019-04-27T10:54:46.884Z,18.07
2019-04-27T10:57:16.551Z,27.50
2019-04-27T10:59:46.246Z,17.17
2019-04-27T11:02:15.921Z,14.73
2019-04-27T11:04:51.825Z,14.50
2019-04-27T11:07:23.186Z,19.40
2019-04-27T11:09:53.077Z,16.67
2019-04-27T11:12:22.679Z,15.17
2019-04-27T11:14:52.274Z,16.87
2019-04-27T11:17:21.900Z,17.47
2019-04-27T11:19:51.492Z,18.90
2019-04-27T11:22:21.098Z,16.93
2019-04-27T11:24:50.714Z,20.90
2019-04-27T11:27:20.328Z,18.07
2019-04-27T11:29:49.940Z,17.87
2019-04-27T11:32:19.580Z,21.90
2019-04-27T11:35:11.621Z,19.43
2019-04-27T11:37:41.241Z,16.77
2019-04-27T11:40:11.500Z,17.37
2019-04-27T11:42:41.152Z,18.77
2019-04-27T11:45:11.195Z,14.50
2019-04-27T11:47:40.794Z,18.27
2019-04-27T11:50:11.017Z,14.40
2019-04-27T11:52:40.741Z,15.77
2019-04-27T11:55:10.679Z,15.63
2019-04-27T11:57:40.308Z,13.27
2019-04-27T12:00:12.180Z,15.33
2019-04-27T12:02:41.783Z,14.40
2019-04-27T12:05:11.392Z,24.73
2019-04-27T12:07:41.028Z,15.33
2019-04-27T12:10:10.838Z,15.53
2019-04-27T12:12:40.458Z,17.23
2019-04-27T12:15:10.733Z,17.73
2019-04-27T12:17:40.371Z,16.23
2019-04-27T12:20:10.707Z,15.10
2019-04-27T12:22:40.317Z,17.30
2019-04-27T12:25:10.244Z,17.07
2019-04-27T12:27:57.543Z,14.77
2019-04-27T12:30:52.235Z,16.00
2019-04-27T12:33:21.880Z,13.73
2019-04-27T12:35:51.557Z,17.47
2019-04-27T12:38:21.222Z,18.97
2019-04-27T12:40:50.852Z,15.00
2019-04-27T12:43:20.486Z,15.60
2019-04-27T12:45:50.595Z,18.67
2019-04-27T12:48:20.286Z,19.80
2019-04-27T12:50:50.210Z,15.83
2019-04-27T12:53:29.557Z,19.00
2019-04-27T12:56:10.710Z,17.90
2019-04-27T12:58:59.259Z,14.10
2019-04-27T13:01:29.015Z,13.40
2019-04-27T13:03:59.256Z,15.03
2019-04-27T13:06:28.968Z,15.97
2019-04-27T13:08:58.587Z,15.63
2019-04-27T13:11:28.203Z,17.67
2019-04-27T13:13:57.828Z,19.67
2019-04-27T13:16:30.304Z,17.00
2019-04-27T13:18:58.684Z,10.97
2019-04-27T13:21:28.419Z,14.63
2019-04-27T13:24:04.274Z,14.03
2019-04-27T13:26:29.356Z,13.33
2019-04-27T13:28:58.962Z,17.97
2019-04-27T13:31:28.611Z,13.23
2019-04-27T13:33:58.228Z,16.43
2019-04-27T13:36:27.852Z,16.30
2019-04-27T13:38:57.466Z,14.13
2019-04-27T13:41:32.618Z,13.50
2019-04-27T13:43:58.340Z,16.07
2019-04-27T13:46:46.027Z,17.43
2019-04-27T13:49:40.387Z,14.87
2019-04-27T13:52:16.233Z,13.40
2019-04-27T13:54:45.997Z,11.77
2019-04-27T13:57:18.127Z,12.53
2019-04-27T13:59:46.856Z,16.67
2019-04-27T14:02:16.481Z,17.63
2019-04-27T14:04:47.130Z,17.03
2019-04-27T14:07:16.739Z,14.30
2019-04-27T14:09:46.352Z,18.97
2019-04-27T14:12:21.342Z,18.77
2019-04-27T14:14:50.860Z,13.73
2019-04-27T14:17:20.549Z,15.03
2019-04-27T14:19:50.230Z,16.30
2019-04-27T14:22:25.371Z,16.70
2019-04-27T14:24:55.942Z,18.50
2019-04-27T14:27:28.183Z,15.20
2019-04-27T14:29:59.504Z,15.27
2019-04-27T14:32:29.303Z,15.47
2019-04-27T14:35:00.959Z,14.60
2019-04-27T14:37:30.566Z,16.17
2019-04-27T14:40:00.188Z,14.30
2019-04-27T14:42:29.901Z,15.40
2019-04-27T14:44:59.544Z,19.57
2019-04-27T14:47:29.187Z,14.60
2019-04-27T14:49:59.025Z,15.57
2019-04-27T14:52:28.649Z,12.00
2019-04-27T14:54:59.356Z,15.87
2019-04-27T14:57:29.247Z,13.93
2019-04-27T15:00:00.160Z,12.13
2019-04-27T15:02:29.911Z,18.93
2019-04-27T15:04:59.532Z,16.93
2019-04-27T15:07:29.179Z,12.83
2019-04-27T15:09:58.799Z,15.50
2019-04-27T15:12:30.540Z,19.00
2019-04-27T15:15:01.516Z,15.57
2019-04-27T15:17:31.197Z,17.93
2019-04-27T15:20:05.541Z,19.63
2019-04-27T15:22:35.655Z,13.73
2019-04-27T15:25:11.938Z,17.73
2019-04-27T15:27:42.376Z,17.17
2019-04-27T15:30:17.955Z,15.37
2019-04-27T15:33:10.508Z,11.07
2019-04-27T15:35:48.575Z,15.90
2019-04-27T15:38:22.007Z,13.63
2019-04-27T15:41:08.819Z,14.90
2019-04-27T15:43:39.868Z,14.53
2019-04-27T15:46:09.489Z,17.37
2019-04-27T15:48:39.125Z,12.63
2019-04-27T15:51:14.852Z,15.07
2019-04-27T15:53:41.551Z,14.67
2019-04-27T15:56:11.441Z,15.37
2019-04-27T15:58:41.104Z,12.70
2019-04-27T16:01:11.900Z,17.73
2019-04-27T16:03:41.789Z,15.93
2019-04-27T16:06:12.001Z,18.30
2019-04-27T16:08:44.986Z,16.27
2019-04-27T16:11:16.730Z,13.87
2019-04-27T16:13:44.257Z,15.00
2019-04-27T16:16:13.887Z,14.07
2019-04-27T16:18:43.517Z,14.33
2019-04-27T16:21:13.107Z,16.80
2019-04-27T16:23:43.252Z,13.20
2019-04-27T16:26:14.901Z,16.33
2019-04-27T16:28:49.607Z,14.00
2019-04-27T16:31:15.751Z,13.13
2019-04-27T16:33:45.388Z,16.37
2019-04-27T16:36:15.317Z,13.17
2019-04-27T16:39:03.619Z,12.63
2019-04-27T16:41:37.252Z,14.40
2019-04-27T16:44:06.767Z,15.63
2019-04-27T16:46:39.394Z,15.83
2019-04-27T16:49:13.676Z,16.07
2019-04-27T16:51:40.322Z,13.33
2019-04-27T16:54:16.235Z,16.53
2019-04-27T16:56:41.427Z,13.80
2019-04-27T16:59:36.416Z,17.13
2019-04-27T17:01:46.356Z,20.90
2019-04-27T17:04:15.085Z,14.13
2019-04-27T17:06:46.220Z,14.70
2019-04-27T17:09:16.037Z,15.87
2019-04-27T17:11:50.409Z,16.90
2019-04-27T17:14:26.549Z,14.30
2019-04-27T17:17:19.646Z,14.47
2019-04-27T17:19:52.839Z,14.77
2019-04-27T17:22:22.513Z,16.97
2019-04-27T17:24:52.142Z,16.57
2019-04-27T17:27:29.772Z,16.00
2019-04-27T17:30:01.662Z,20.47
2019-04-27T17:32:38.838Z,18.10
2019-04-27T17:35:12.966Z,17.13
2019-04-27T17:37:39.632Z,15.87
2019-04-27T17:40:09.608Z,20.10
2019-04-27T17:42:39.205Z,16.77
2019-04-27T17:45:09.101Z,19.77
2019-04-27T17:47:38.963Z,15.53
2019-04-27T17:50:09.331Z,16.70
2019-04-27T17:52:39.800Z,16.07
2019-04-27T17:55:09.601Z,16.63
2019-04-27T17:57:39.290Z,15.00
2019-04-27T18:00:10.302Z,18.13
2019-04-27T18:02:42.341Z,17.53
2019-04-27T18:05:13.811Z,18.23
2019-04-27T18:07:44.282Z,14.40
2019-04-27T18:10:22.391Z,18.67
2019-04-27T18:12:48.807Z,14.77
2019-04-27T18:15:17.180Z,16.47
2019-04-27T18:17:52.067Z,15.10
2019-04-27T18:20:22.296Z,18.83
2019-04-27T18:22:58.016Z,22.33
2019-04-27T18:25:28.530Z,17.50
2019-04-27T18:28:09.998Z,13.93
2019-04-27T18:31:11.425Z,16.60
2019-04-27T18:33:42.562Z,17.23
2019-04-27T18:36:14.241Z,15.37
2019-04-27T18:38:43.462Z,17.40
2019-04-27T18:41:13.088Z,20.17
2019-04-27T18:43:50.585Z,15.67
2019-04-27T18:46:14.799Z,18.20
2019-04-27T18:49:04.235Z,17.40
2019-04-27T18:51:43.263Z,15.90
2019-04-27T18:54:12.884Z,22.57
2019-04-27T18:56:42.522Z,14.47
2019-04-27T18:59:12.185Z,17.50
2019-04-27T19:01:41.802Z,14.17
2019-04-27T19:04:11.456Z,15.90
2019-04-27T19:06:41.162Z,17.43
2019-04-27T19:09:11.079Z,15.60
2019-04-27T19:11:53.408Z,15.47
2019-04-27T19:14:11.993Z,13.03
2019-04-27T19:16:41.620Z,12.73
2019-04-27T19:19:11.258Z,13.27
2019-04-27T19:21:40.888Z,14.23
2019-04-27T19:24:10.518Z,16.00
2019-04-27T19:26:52.776Z,14.80
2019-04-27T19:29:29.211Z,14.93
2019-04-27T19:32:00.801Z,15.63
2019-04-27T19:34:30.436Z,19.27
2019-04-27T19:37:00.091Z,17.23
2019-04-27T19:39:29.737Z,18.10
2019-04-27T19:42:03.365Z,14.23
2019-04-27T19:44:30.602Z,17.13
2019-04-27T19:47:00.426Z,18.40
2019-04-27T19:49:31.727Z,14.00
2019-04-27T19:52:01.519Z,15.57
2019-04-27T19:54:31.143Z,17.77
2019-04-27T19:57:00.768Z,16.63
2019-04-27T19:59:35.486Z,15.43
2019-04-27T20:02:09.179Z,14.87
2019-04-27T20:04:40.460Z,13.47
2019-04-27T20:07:10.623Z,13.53
2019-04-27T20:09:52.438Z,13.90
2019-04-27T20:12:22.028Z,18.37
2019-04-27T20:14:57.571Z,15.40
2019-04-27T20:17:31.180Z,13.23
2019-04-27T20:20:01.251Z,13.57
2019-04-27T20:22:30.859Z,14.10
2019-04-27T20:25:01.923Z,12.03
2019-04-27T20:27:45.331Z,17.63
2019-04-27T20:30:06.783Z,14.13
2019-04-27T20:32:37.751Z,15.23
2019-04-27T20:35:07.770Z,14.87
2019-04-27T20:37:37.427Z,16.70
2019-04-27T20:40:07.787Z,16.60
2019-04-27T20:42:37.431Z,14.73
2019-04-27T20:45:07.787Z,14.80
2019-04-27T20:47:37.416Z,16.40
2019-04-27T20:50:07.222Z,14.53
2019-04-27T20:52:54.081Z,14.27
2019-04-27T20:55:23.965Z,14.07
2019-04-27T20:58:01.628Z,18.57
2019-04-27T21:00:25.451Z,15.43
2019-04-27T21:03:13.666Z,16.83
2019-04-27T21:06:07.964Z,16.90
2019-04-27T21:08:38.611Z,15.17
2019-04-27T21:11:08.279Z,13.13
2019-04-27T21:13:37.906Z,16.97
2019-04-27T21:16:07.646Z,16.70
2019-04-27T21:18:37.307Z,14.73
2019-04-27T21:21:06.899Z,14.60
2019-04-27T21:23:36.530Z,16.07
2019-04-27T21:26:06.150Z,14.27
2019-04-27T21:28:35.779Z,16.30
2019-04-27T21:31:05.452Z,15.00
2019-04-27T21:33:35.073Z,13.87
2019-04-27T21:36:04.676Z,13.70
2019-04-27T21:38:34.275Z,15.73
2019-04-27T21:41:03.984Z,15.97
2019-04-27T21:43:33.606Z,15.33
2019-04-27T21:46:03.235Z,16.67
2019-04-27T21:48:32.874Z,20.80
2019-04-27T21:51:02.470Z,21.40
2019-04-27T21:53:54.107Z,12.67
2019-04-27T21:56:23.739Z,15.00
2019-04-27T21:58:53.364Z,16.43
2019-04-27T22:01:31.658Z,14.90
2019-04-27T22:04:01.272Z,11.67
2019-04-27T22:06:30.880Z,15.47
2019-04-27T22:09:01.335Z,15.07
2019-04-27T22:11:31.894Z,15.53
2019-04-27T22:14:01.698Z,12.73
2019-04-27T22:16:31.542Z,12.90
2019-04-27T22:19:01.908Z,16.70
2019-04-27T22:21:31.786Z,14.47
2019-04-27T22:24:11.160Z,15.17
2019-04-27T22:26:41.532Z,16.00
2019-04-27T22:29:12.116Z,14.50
2019-04-27T22:31:41.781Z,12.77
2019-04-27T22:34:11.422Z,14.50
2019-04-27T22:36:41.201Z,15.37
2019-04-27T22:39:25.034Z,14.07
2019-04-27T22:42:12.127Z,14.17
2019-04-27T22:44:48.863Z,16.17
2019-04-27T22:47:18.505Z,16.20
2019-04-27T22:49:48.116Z,12.53
2019-04-27T22:52:17.795Z,16.10
2019-04-27T22:54:47.470Z,14.23
2019-04-27T22:57:25.728Z,17.17
2019-04-27T23:00:03.753Z,16.37
2019-04-27T23:02:46.822Z,16.00
2019-04-27T23:05:16.452Z,16.83
2019-04-27T23:07:46.109Z,12.77
2019-04-27T23:10:15.871Z,15.90
2019-04-27T23:12:45.502Z,16.30
2019-04-27T23:15:18.871Z,17.83
2019-04-27T23:18:00.608Z,17.87
2019-04-27T23:20:32.036Z,16.43
2019-04-27T23:23:02.861Z,18.53
2019-04-27T23:25:32.588Z,13.87
2019-04-27T23:28:02.255Z,16.50
2019-04-27T23:30:53.541Z,15.80
2019-04-27T23:33:23.179Z,15.37
2019-04-27T23:35:52.811Z,15.73
2019-04-27T23:38:22.427Z,13.23
2019-04-27T23:40:52.058Z,16.17
2019-04-27T23:43:21.778Z,16.13
2019-04-27T23:45:51.719Z,16.70
2019-04-27T23:48:22.709Z,18.87
2019-04-27T23:50:55.322Z,18.40
2019-04-27T23:53:29.474Z,16.90
2019-04-27T23:55:59.099Z,16.20
2019-04-27T23:58:28.729Z,16.10
